Time;durP1;ratioP1;P1;durP2;ratioP2;P2;SDS_P1;SDS_P2;PMS_P1;PMS_P2;Temp;Humidity;BMP_temperature;BMP_pressure;BME280_temperature;BME280_humidity;BME280_pressure;Samples;Min_cycle;Max_cycle;Signal;HPM_P1;HPM_P2
2023/01/14 00:01:15;;;;;;;3.20;1.90;;;;;;;10.46;100.00;99056.50;266402;1279;25223;-84
2023/01/14 00:07:18;;;;;;;3.60;2.00;;;;;;;10.57;100.00;99060.80;265002;1279;2696785;-84
2023/01/14 00:13:21;;;;;;;2.60;1.70;;;;;;;10.69;100.00;99071.48;267204;1279;25530;-84
2023/01/14 00:19:26;;;;;;;3.30;2.00;;;;;;;10.37;100.00;99084.32;270735;1276;22568;-84
2023/01/14 00:25:34;;;;;;;3.60;1.80;;;;;;;10.28;100.00;99088.86;270870;1279;22737;-86
2023/01/14 00:31:39;;;;;;;3.50;2.00;;;;;;;10.35;100.00;99095.34;268334;1279;23068;-87
2023/01/14 00:37:56;;;;;;;3.70;1.80;;;;;;;10.27;100.00;99097.52;266528;1279;22553;-86
2023/01/14 00:44:03;;;;;;;2.80;1.70;;;;;;;10.15;100.00;99092.68;266910;1279;24566;-86
2023/01/14 00:50:10;;;;;;;3.00;1.80;;;;;;;10.02;100.00;99102.02;266745;1279;25366;-85
2023/01/14 00:56:22;;;;;;;2.80;1.60;;;;;;;10.09;100.00;99105.09;266654;1279;23316;-87
2023/01/14 01:02:29;;;;;;;4.40;1.80;;;;;;;9.98;100.00;99097.97;266427;1279;22593;-86
2023/01/14 01:08:50;;;;;;;3.20;1.90;;;;;;;10.01;100.00;99100.79;266751;1276;22537;-87
2023/01/14 01:15:06;;;;;;;4.00;1.70;;;;;;;10.07;100.00;99104.71;266634;1279;24706;-89
2023/01/14 01:21:14;;;;;;;2.20;1.40;;;;;;;9.84;100.00;99106.92;266916;1276;22555;-86
2023/01/14 01:27:24;;;;;;;1.80;1.30;;;;;;;10.00;100.00;99110.80;266798;1279;22679;-85
2023/01/14 01:33:33;;;;;;;3.40;1.60;;;;;;;10.06;100.00;99108.89;266706;1276;22758;-87
2023/01/14 01:39:36;;;;;;;2.90;1.50;;;;;;;9.95;100.00;99111.84;266513;1280;22564;-86
2023/01/14 01:45:50;;;;;;;2.20;1.20;;;;;;;9.66;100.00;99112.25;266416;1279;25441;-85
2023/01/14 01:52:23;;;;;;;1.40;1.00;;;;;;;9.78;100.00;99110.31;266593;1280;24352;-87
2023/01/14 01:58:30;;;;;;;2.30;1.30;;;;;;;9.52;100.00;99108.98;266478;1279;24430;-87
2023/01/14 02:04:45;;;;;;;1.80;1.10;;;;;;;9.58;100.00;99106.94;266602;1280;22073;-88
2023/01/14 02:11:28;;;;;;;2.50;1.20;;;;;;;9.46;100.00;99114.86;266683;1280;24705;-88
2023/01/14 02:18:11;;;;;;;2.10;1.00;;;;;;;9.41;100.00;99125.39;266896;1280;22607;-92
2023/01/14 02:24:44;;;;;;;2.20;1.10;;;;;;;9.50;100.00;99127.33;266571;1280;25310;-87
2023/01/14 02:31:00;;;;;;;2.60;0.90;;;;;;;9.60;100.00;99119.92;266635;1279;23997;-87
2023/01/14 02:37:34;;;;;;;2.70;1.10;;;;;;;9.53;100.00;99116.23;266661;1279;25314;-86
2023/01/14 02:44:10;;;;;;;2.70;1.00;;;;;;;9.51;100.00;99129.25;266660;1279;22592;-87
2023/01/14 02:50:19;;;;;;;1.60;0.90;;;;;;;9.36;100.00;99137.13;266620;1257;25519;-87
2023/01/14 02:56:26;;;;;;;1.60;1.10;;;;;;;9.30;100.00;99140.02;266371;1273;24230;-85
2023/01/14 03:02:43;;;;;;;1.20;0.80;;;;;;;9.20;100.00;99142.46;266508;1279;22547;-85
2023/01/14 03:09:15;;;;;;;2.30;0.90;;;;;;;9.18;100.00;99141.81;266912;1274;23914;-85
2023/01/14 03:15:40;;;;;;;1.90;1.30;;;;;;;9.07;100.00;99150.88;266337;1257;23991;-84
2023/01/14 03:21:48;;;;;;;1.70;0.90;;;;;;;8.82;100.00;99158.10;266781;1279;24406;-84
2023/01/14 03:27:51;;;;;;;1.90;1.00;;;;;;;8.60;100.00;99171.63;266380;1279;22555;-83
2023/01/14 03:34:09;;;;;;;2.00;1.10;;;;;;;8.57;100.00;99180.46;266134;1281;22569;-87
2023/01/14 03:40:20;;;;;;;3.10;1.00;;;;;;;8.63;100.00;99187.20;266565;1281;22659;-87
2023/01/14 03:46:28;;;;;;;2.00;0.90;;;;;;;8.84;100.00;99195.44;266457;1281;22546;-86
2023/01/14 03:53:04;;;;;;;2.70;1.10;;;;;;;9.12;100.00;99204.55;266180;1281;22523;-86
2023/01/14 03:59:16;;;;;;;2.90;1.00;;;;;;;9.21;100.00;99214.92;265993;1273;22541;-86
2023/01/14 04:05:22;;;;;;;1.60;0.90;;;;;;;9.34;100.00;99220.15;266089;1281;22589;-86
2023/01/14 04:11:33;;;;;;;1.10;0.80;;;;;;;9.39;100.00;99227.17;266536;1281;24150;-87
2023/01/14 04:17:42;;;;;;;1.30;0.90;;;;;;;9.57;100.00;99238.30;266438;1280;24059;-85
2023/01/14 04:23:56;;;;;;;1.50;0.80;;;;;;;9.67;100.00;99244.58;266292;1279;22543;-87
2023/01/14 04:30:04;;;;;;;1.70;1.00;;;;;;;9.63;100.00;99246.84;266753;1279;24233;-87
2023/01/14 04:36:10;;;;;;;1.70;1.10;;;;;;;9.59;100.00;99241.38;267002;1257;25481;-85
2023/01/14 04:42:28;;;;;;;2.10;1.20;;;;;;;9.67;100.00;99241.69;267239;1279;25078;-85
2023/01/14 04:48:31;;;;;;;2.80;1.00;;;;;;;9.64;100.00;99244.90;266513;1277;22594;-86
2023/01/14 04:54:42;;;;;;;1.50;1.20;;;;;;;9.55;100.00;99249.22;266610;1279;23137;-86
2023/01/14 05:00:45;;;;;;;2.50;1.10;;;;;;;9.65;100.00;99248.52;266960;1279;24236;-87
2023/01/14 05:06:53;;;;;;;2.00;0.90;;;;;;;9.63;100.00;99252.25;266445;1279;22728;-86
2023/01/14 05:13:07;;;;;;;1.90;1.10;;;;;;;9.86;100.00;99257.08;267048;1279;22595;-90
2023/01/14 05:19:16;;;;;;;1.40;1.00;;;;;;;10.10;99.76;99255.08;266615;1279;23178;-85
2023/01/14 05:25:25;;;;;;;2.20;1.00;;;;;;;10.04;100.00;99251.84;266494;1279;22534;-85
2023/01/14 05:31:28;;;;;;;3.40;1.10;;;;;;;10.03;100.00;99257.07;266638;1270;22543;-85
2023/01/14 05:37:35;;;;;;;2.40;1.40;;;;;;;9.69;100.00;99273.85;266561;1279;25436;-86
2023/01/14 05:50:14;;;;;;;2.80;1.50;;;;;;;9.63;100.00;99295.41;266462;1277;22998;-87
2023/01/14 05:56:22;;;;;;;4.60;1.60;;;;;;;9.71;100.00;99300.52;266579;1280;22541;-87
2023/01/14 06:09:01;;;;;;;3.50;1.50;;;;;;;9.75;100.00;99308.17;266466;1279;27385;-86
2023/01/14 06:15:11;;;;;;;4.30;1.90;;;;;;;9.73;100.00;99323.67;266859;1273;22605;-83
2023/01/14 06:21:18;;;;;;;4.30;1.90;;;;;;;9.79;100.00;99332.46;266383;1279;22547;-87
2023/01/14 06:27:26;;;;;;;3.90;1.70;;;;;;;9.79;100.00;99333.36;265789;1279;22566;-86
2023/01/14 06:33:29;;;;;;;3.50;1.50;;;;;;;9.85;100.00;99336.83;266532;1279;23556;-85
2023/01/14 06:39:32;;;;;;;4.60;1.80;;;;;;;9.79;100.00;99340.23;265997;1279;24421;-87
2023/01/14 06:45:39;;;;;;;5.20;2.50;;;;;;;9.82;100.00;99348.72;266503;1279;25399;-88
2023/01/14 06:51:45;;;;;;;6.80;2.60;;;;;;;9.65;100.00;99350.98;267643;1277;22688;-90
2023/01/14 06:58:11;;;;;;;5.80;2.90;;;;;;;9.82;100.00;99357.09;267958;1279;23552;-90
2023/01/14 07:04:14;;;;;;;6.30;2.90;;;;;;;10.10;100.00;99369.32;266765;1279;22591;-85
2023/01/14 07:10:21;;;;;;;9.40;3.50;;;;;;;10.25;100.00;99372.09;266990;1279;23058;-88
2023/01/14 07:16:24;;;;;;;7.40;2.70;;;;;;;10.15;100.00;99376.39;267760;1279;22537;-85
2023/01/14 07:22:30;;;;;;;5.00;2.60;;;;;;;10.19;100.00;99379.54;267521;1279;22540;-85
2023/01/14 07:28:36;;;;;;;3.80;2.50;;;;;;;10.26;100.00;99378.48;267678;1279;22708;-84
2023/01/14 07:34:44;;;;;;;8.50;3.80;;;;;;;10.30;100.00;99379.81;266913;1279;22596;-87
2023/01/14 07:40:50;;;;;;;5.60;3.10;;;;;;;10.44;100.00;99385.70;267332;1279;22760;-87
2023/01/14 07:46:55;;;;;;;5.20;3.10;;;;;;;10.60;100.00;99384.32;267913;1279;22549;-87
2023/01/14 07:52:59;;;;;;;5.90;3.20;;;;;;;10.69;100.00;99391.13;267815;1279;23507;-84
2023/01/14 07:59:05;;;;;;;6.80;3.20;;;;;;;10.81;100.00;99401.71;266912;1274;22636;-85
2023/01/14 08:05:12;;;;;;;5.90;3.00;;;;;;;10.85;100.00;99411.07;267750;1272;26630;-84
2023/01/14 08:11:46;;;;;;;7.10;3.80;;;;;;;10.99;100.00;99406.48;267606;1279;22566;-84
2023/01/14 08:17:59;;;;;;;6.70;3.40;;;;;;;11.31;98.51;99411.24;267461;1279;26509;-82
2023/01/14 08:24:06;;;;;;;6.70;3.50;;;;;;;11.11;99.85;99404.89;267701;1273;22529;-83
2023/01/14 08:30:10;;;;;;;6.20;3.90;;;;;;;10.99;99.65;99408.73;267592;1274;23270;-83
2023/01/14 08:36:21;;;;;;;8.90;4.10;;;;;;;11.26;94.65;99420.70;267724;1279;22543;-84
2023/01/14 08:42:24;;;;;;;6.00;3.80;;;;;;;11.36;93.79;99428.48;267121;1279;22528;-85
2023/01/14 08:48:28;;;;;;;5.90;3.70;;;;;;;11.72;90.26;99430.66;267228;1274;22545;-84
2023/01/14 08:54:36;;;;;;;5.50;3.50;;;;;;;11.86;90.93;99436.73;267469;1273;22533;-85
2023/01/14 09:00:45;;;;;;;7.80;3.30;;;;;;;12.17;88.17;99439.97;267123;1277;22534;-84
2023/01/14 09:19:47;;;;;;;7.90;3.80;;;;;;;12.62;80.89;99448.20;267337;1279;22537;-83
2023/01/14 09:25:50;;;;;;;5.80;3.50;;;;;;;12.79;79.17;99447.11;267117;1279;25633;-86
2023/01/14 09:31:53;;;;;;;7.00;3.70;;;;;;;12.88;78.20;99445.90;267178;1279;22663;-84
2023/01/14 09:37:59;;;;;;;6.20;3.50;;;;;;;13.15;75.28;99443.08;267277;1274;22507;-83
2023/01/14 09:44:05;;;;;;;8.70;3.30;;;;;;;13.10;73.87;99444.54;267163;1279;23229;-83
2023/01/14 09:50:14;;;;;;;8.00;3.50;;;;;;;12.96;74.61;99446.25;267208;1274;22594;-84
2023/01/14 09:56:25;;;;;;;8.20;3.60;;;;;;;13.14;73.99;99450.61;267142;1279;22609;-84
2023/01/14 10:02:48;;;;;;;6.40;3.60;;;;;;;13.33;72.92;99442.78;267653;1274;23153;-82
2023/01/14 10:08:59;;;;;;;6.40;3.20;;;;;;;13.39;71.99;99435.45;267110;1276;22725;-81
2023/01/14 10:15:26;;;;;;;6.10;2.90;;;;;;;13.25;71.77;99427.52;267271;1279;22739;-82
2023/01/14 10:21:46;;;;;;;8.00;3.30;;;;;;;12.98;71.52;99424.05;268828;1273;22599;-81
2023/01/14 10:27:54;;;;;;;6.20;2.60;;;;;;;12.75;71.66;99424.80;268548;1279;22690;-86
2023/01/14 10:33:58;;;;;;;6.00;2.50;;;;;;;12.64;72.58;99417.65;267467;1279;25657;-85
2023/01/14 10:40:03;;;;;;;7.20;2.70;;;;;;;12.62;72.41;99415.98;267591;1276;26166;-84
2023/01/14 10:46:06;;;;;;;8.70;2.90;;;;;;;12.61;73.24;99422.15;267660;1279;23312;-82
2023/01/14 10:52:25;;;;;;;6.70;3.00;;;;;;;13.05;73.03;99416.10;267065;1273;24311;-84
2023/01/14 10:58:41;;;;;;;5.90;2.50;;;;;;;13.34;71.22;99408.73;267622;1274;24236;-82
2023/01/14 11:04:45;;;;;;;5.50;2.60;;;;;;;13.52;71.16;99397.41;266572;1270;22550;-82
2023/01/14 11:10:59;;;;;;;6.40;2.40;;;;;;;13.84;69.95;99395.34;265845;1279;27511;-83
2023/01/14 11:17:29;;;;;;;5.50;2.00;;;;;;;14.11;68.71;99389.08;267682;1257;22576;-82
2023/01/14 11:23:39;;;;;;;5.90;2.20;;;;;;;14.38;67.06;99393.27;268755;1279;22571;-82
2023/01/14 11:29:57;;;;;;;4.90;1.80;;;;;;;14.59;65.45;99395.15;267648;1279;22600;-82
2023/01/14 11:36:02;;;;;;;5.70;1.90;;;;;;;14.52;64.18;99387.53;268383;1279;23552;-82
2023/01/14 11:42:39;;;;;;;6.00;2.00;;;;;;;14.26;64.33;99387.63;268334;1279;22543;-83
2023/01/14 11:48:42;;;;;;;4.70;1.90;;;;;;;14.43;64.39;99384.61;268260;1274;24243;-83
2023/01/14 11:54:51;;;;;;;5.80;1.90;;;;;;;13.69;64.00;99379.61;267702;1279;23986;-84
2023/01/14 12:01:03;;;;;;;5.10;1.80;;;;;;;13.16;64.98;99373.82;267417;1277;22625;-83
2023/01/14 12:07:11;;;;;;;7.40;1.80;;;;;;;13.04;65.77;99367.75;267265;1279;108232;-84
2023/01/14 12:20:02;;;;;;;6.40;2.40;;;;;;;12.86;66.63;99358.27;267243;1279;22599;-83
2023/01/14 12:26:13;;;;;;;6.00;1.90;;;;;;;12.73;67.15;99349.70;267373;1267;24204;-83
2023/01/14 12:32:20;;;;;;;6.90;2.10;;;;;;;12.76;67.55;99341.02;267022;1279;27324;-84
2023/01/14 12:51:29;;;;;;;5.70;1.90;;;;;;;12.85;68.90;99330.72;266075;1265;25555;-82
2023/01/14 12:57:44;;;;;;;5.20;2.20;;;;;;;13.24;68.01;99325.38;266295;1273;22655;-85
2023/01/14 13:03:55;;;;;;;5.60;2.20;;;;;;;13.30;68.15;99328.20;267252;1279;22609;-85
2023/01/14 13:10:02;;;;;;;5.60;2.10;;;;;;;13.34;67.74;99325.08;267456;1279;25482;-86
2023/01/14 13:16:25;;;;;;;;;;;;;;;13.27;67.59;99330.77;267072;1280;22559;-86
2023/01/14 13:22:51;;;;;;;5.90;2.60;;;;;;;13.23;67.35;99326.33;267498;1279;22543;-86
2023/01/14 13:29:15;;;;;;;;;;;;;;;13.38;67.57;99320.55;267214;1264;24228;-87
2023/01/14 13:35:22;;;;;;;9.40;2.40;;;;;;;13.33;67.04;99317.98;266868;1274;25579;-82
2023/01/14 13:41:39;;;;;;;7.10;2.80;;;;;;;13.44;66.68;99316.29;265994;1280;23786;-84
2023/01/14 13:47:48;;;;;;;6.30;2.60;;;;;;;13.49;65.98;99319.70;266478;1280;22575;-84
2023/01/14 13:54:24;;;;;;;6.50;2.50;;;;;;;13.22;65.77;99318.86;265963;1279;24384;-82
2023/01/14 14:00:34;;;;;;;6.00;2.40;;;;;;;12.96;66.17;99314.55;266330;1280;25743;-83
2023/01/14 14:06:44;;;;;;;7.10;2.50;;;;;;;12.61;66.86;99312.38;267276;1276;23855;-86
2023/01/14 14:19:22;;;;;;;8.80;2.90;;;;;;;12.27;67.55;99306.44;267845;1280;22815;-86
2023/01/14 14:25:33;;;;;;;6.30;2.60;;;;;;;12.27;67.73;99313.02;268307;1276;22781;-87
2023/01/14 14:31:39;;;;;;;5.00;2.40;;;;;;;12.23;67.30;99302.52;268076;1279;22608;-86
2023/01/14 14:37:59;;;;;;;;;;;;;;;12.18;67.25;99301.70;268016;1279;22527;-86
2023/01/14 14:44:15;;;;;;;5.40;2.60;;;;;;;11.89;67.44;99299.05;268510;1277;22584;-85
2023/01/14 14:50:31;;;;;;;6.10;2.50;;;;;;;11.72;68.06;99297.01;268510;1274;22573;-81
2023/01/14 14:56:34;;;;;;;6.00;2.60;;;;;;;11.30;69.07;99292.98;268591;1259;24291;-83
2023/01/14 15:02:44;;;;;;;6.50;2.60;;;;;;;11.00;69.74;99288.63;268004;1279;22552;-83
2023/01/14 15:08:55;;;;;;;5.00;2.10;;;;;;;10.81;70.40;99286.48;267318;1279;22540;-84
2023/01/14 15:14:59;;;;;;;5.60;2.20;;;;;;;10.57;71.13;99283.41;267735;1279;22543;-88
2023/01/14 15:21:04;;;;;;;7.70;3.20;;;;;;;10.32;71.47;99283.10;267076;1258;23162;-85
2023/01/14 15:27:12;;;;;;;5.90;2.80;;;;;;;9.99;73.15;99285.31;267278;1279;22538;-81
2023/01/14 15:33:33;;;;;;;7.40;2.90;;;;;;;9.58;78.45;99275.13;267376;1279;22539;-84
2023/01/14 15:39:42;;;;;;;7.10;3.30;;;;;;;9.76;77.26;99279.90;267741;1279;25332;-84
2023/01/14 15:45:48;;;;;;;9.70;3.80;;;;;;;9.53;77.58;99277.31;267820;1280;22563;-85
2023/01/14 15:51:55;;;;;;;9.40;4.10;;;;;;;9.62;77.70;99272.83;268165;1279;23408;-83
2023/01/14 15:57:59;;;;;;;;;;;;;;;9.35;78.37;99279.80;268141;1279;23327;-81
2023/01/14 16:04:02;;;;;;;8.20;3.80;;;;;;;9.12;80.80;99278.99;268155;1274;24812;-83
2023/01/14 16:10:08;;;;;;;11.20;5.30;;;;;;;9.15;82.23;99282.29;267801;1274;22731;-81
2023/01/14 16:16:15;;;;;;;11.30;5.00;;;;;;;8.84;84.25;99287.44;266446;1279;22850;-82
2023/01/14 16:22:17;;;;;;;12.00;5.70;;;;;;;8.58;87.08;99283.83;267552;1276;22564;-81
2023/01/14 16:28:21;;;;;;;16.90;7.10;;;;;;;8.52;88.41;99276.22;268051;1274;22577;-81
2023/01/14 16:34:28;;;;;;;14.10;6.00;;;;;;;8.36;91.31;99275.88;268091;1275;24314;-82
2023/01/14 16:40:33;;;;;;;15.20;6.90;;;;;;;8.08;93.66;99266.02;267929;1279;23450;-82
2023/01/14 16:46:36;;;;;;;15.60;6.80;;;;;;;8.08;95.06;99258.84;267257;1273;22571;-83
2023/01/14 16:52:46;;;;;;;13.80;7.30;;;;;;;8.21;93.94;99252.87;267412;1276;25479;-84
2023/01/14 16:58:51;;;;;;;17.60;8.00;;;;;;;8.03;92.33;99250.81;267139;1279;24196;-87
2023/01/14 17:04:54;;;;;;;13.60;7.50;;;;;;;7.90;92.96;99248.53;267277;1259;22927;-84
2023/01/14 17:10:57;;;;;;;18.40;8.20;;;;;;;7.64;95.58;99242.34;267462;1279;22632;-85
2023/01/14 17:17:01;;;;;;;18.50;8.50;;;;;;;7.49;99.18;99230.98;266315;1279;26611;-86
2023/01/14 17:23:05;;;;;;;18.40;8.60;;;;;;;7.47;97.36;99218.02;266974;1277;25492;-82
2023/01/14 17:29:11;;;;;;;;;;;;;;;7.35;97.57;99198.73;267623;1273;22633;-81
2023/01/14 17:35:15;;;;;;;16.20;7.90;;;;;;;7.30;97.05;99196.30;267992;1279;22738;-86
2023/01/14 17:47:40;;;;;;;14.30;7.20;;;;;;;7.08;98.20;99179.74;268515;1277;27004;-80
2023/01/14 17:53:43;;;;;;;18.10;8.30;;;;;;;6.81;100.00;99171.89;268041;1279;24055;-84
2023/01/14 17:59:50;;;;;;;16.70;7.90;;;;;;;6.65;100.00;99163.89;267516;1277;24268;-83
2023/01/14 18:05:59;;;;;;;17.80;7.70;;;;;;;6.67;100.00;99157.57;267449;1277;25144;-85
2023/01/14 18:12:05;;;;;;;15.70;7.60;;;;;;;6.69;100.00;99166.25;266854;1269;22754;-85
2023/01/14 18:18:09;;;;;;;;;;;;;;;6.64;100.00;99159.73;267243;1276;22501;-85
2023/01/14 18:24:12;;;;;;;27.20;12.70;;;;;;;6.85;99.22;99157.52;267440;1276;22627;-86
2023/01/14 18:30:15;;;;;;;20.20;9.60;;;;;;;7.03;96.12;99157.70;267572;1279;22539;-83
2023/01/14 18:36:19;;;;;;;18.00;7.90;;;;;;;6.92;96.04;99159.63;267490;1279;25730;-85
2023/01/14 18:42:22;;;;;;;20.40;8.40;;;;;;;6.86;97.41;99153.13;267409;1276;23280;-87
2023/01/14 18:48:26;;;;;;;20.60;9.20;;;;;;;6.86;97.65;99147.90;267221;1279;22630;-81
2023/01/14 18:54:30;;;;;;;28.70;12.80;;;;;;;6.74;97.84;99138.30;266089;1279;25423;-80
2023/01/14 19:00:33;;;;;;;22.20;10.30;;;;;;;6.73;98.20;99119.52;266370;1279;22530;-80
2023/01/14 19:06:36;;;;;;;20.00;9.40;;;;;;;6.55;98.31;99110.08;265752;1279;22997;-82
2023/01/14 19:12:43;;;;;;;18.60;8.90;;;;;;;6.59;98.08;99094.18;265808;1279;22588;-84
2023/01/14 19:18:49;;;;;;;19.50;9.20;;;;;;;6.32;99.27;99082.02;266347;1279;22580;-84
2023/01/14 19:24:54;;;;;;;17.90;8.50;;;;;;;6.06;99.95;99074.16;266639;1259;22573;-80
2023/01/14 19:31:05;;;;;;;16.00;7.80;;;;;;;5.92;100.00;99067.13;266331;1265;22572;-79
2023/01/14 19:37:08;;;;;;;17.50;8.70;;;;;;;5.94;100.00;99056.54;267261;1279;23933;-84
2023/01/14 19:43:15;;;;;;;19.00;9.20;;;;;;;5.85;100.00;99041.23;266431;1272;23150;-82
2023/01/14 19:49:18;;;;;;;19.90;9.90;;;;;;;5.73;100.00;99029.20;266927;1278;22559;-82
2023/01/14 19:55:22;;;;;;;17.00;7.80;;;;;;;5.69;100.00;99016.29;266126;1276;22722;-83
2023/01/14 20:01:27;;;;;;;17.30;8.20;;;;;;;5.83;100.00;99005.89;266263;1279;23887;-84
2023/01/14 20:07:33;;;;;;;15.50;6.80;;;;;;;6.00;100.00;98995.23;266115;1271;24330;-84
2023/01/14 20:13:36;;;;;;;11.90;6.20;;;;;;;6.20;100.00;98988.83;267168;1279;22653;-82
2023/01/14 20:19:39;;;;;;;13.30;6.30;;;;;;;6.01;100.00;98979.75;267090;1279;22599;-82
2023/01/14 20:25:50;;;;;;;12.90;6.00;;;;;;;6.07;100.00;98969.05;266629;1279;22574;-85
2023/01/14 20:31:53;;;;;;;14.40;5.80;;;;;;;6.08;100.00;98964.42;267401;1280;25339;-84
2023/01/14 20:37:57;;;;;;;11.10;5.30;;;;;;;6.15;100.00;98956.91;266896;1280;22789;-85
2023/01/14 20:44:02;;;;;;;11.50;5.60;;;;;;;6.12;100.00;98947.70;267060;1264;23046;-84
2023/01/14 20:50:09;;;;;;;14.00;5.90;;;;;;;5.96;100.00;98946.93;266296;1264;22620;-82
2023/01/14 20:56:20;;;;;;;14.20;6.30;;;;;;;5.85;100.00;98948.67;266039;1280;22664;-81
2023/01/14 21:02:24;;;;;;;13.30;5.60;;;;;;;5.78;100.00;98935.44;266704;1281;22669;-84
2023/01/14 21:08:29;;;;;;;12.30;5.90;;;;;;;5.73;100.00;98936.62;266949;1280;25242;-85
2023/01/14 21:27:20;;;;;;;12.40;5.90;;;;;;;5.85;100.00;98932.20;266818;1276;22599;-81
2023/01/14 21:33:30;;;;;;;11.90;4.90;;;;;;;5.70;100.00;98929.79;266751;1277;22667;-81
2023/01/14 21:39:33;;;;;;;11.20;5.10;;;;;;;5.56;100.00;98924.05;266477;1273;22614;-80
2023/01/14 21:45:38;;;;;;;11.20;5.10;;;;;;;5.48;100.00;98917.09;266778;1260;25308;-79
2023/01/14 21:51:58;;;;;;;11.90;5.20;;;;;;;5.36;100.00;98913.08;266466;1264;22592;-80
2023/01/14 21:58:02;;;;;;;9.10;4.80;;;;;;;5.14;100.00;98914.13;266357;1273;24377;-80
2023/01/14 22:04:06;;;;;;;12.40;5.40;;;;;;;5.36;100.00;98915.91;266592;1263;22808;-78
2023/01/14 22:10:09;;;;;;;12.20;5.50;;;;;;;5.35;100.00;98906.27;266964;1261;23207;-79
2023/01/14 22:16:13;;;;;;;13.10;5.70;;;;;;;5.09;100.00;98899.36;266775;1264;22719;-77
2023/01/14 22:22:17;;;;;;;14.40;6.60;;;;;;;5.39;100.00;98891.06;266688;1273;22587;-80
2023/01/14 22:28:24;;;;;;;14.90;5.50;;;;;;;5.40;100.00;98878.31;266831;1263;22691;-80
2023/01/14 22:34:27;;;;;;;;;;;;;;;5.24;100.00;98871.29;266608;1263;22526;-82
2023/01/14 22:40:30;;;;;;;11.20;4.80;;;;;;;5.13;100.00;98856.67;266665;1279;22726;-81
2023/01/14 22:46:36;;;;;;;9.20;5.20;;;;;;;4.98;100.00;98849.36;267809;1279;22584;-80
2023/01/14 22:52:39;;;;;;;11.10;4.70;;;;;;;5.13;100.00;98841.61;267770;1273;24268;-81
2023/01/14 22:58:42;;;;;;;12.00;5.20;;;;;;;5.18;100.00;98838.14;266965;1279;22551;-80
2023/01/14 23:04:49;;;;;;;11.80;5.40;;;;;;;5.08;100.00;98826.73;266811;1273;22536;-81
2023/01/14 23:11:12;;;;;;;12.70;6.20;;;;;;;4.95;100.00;98815.81;266934;1273;25467;-79
2023/01/14 23:17:27;;;;;;;9.60;5.20;;;;;;;4.85;100.00;98791.55;266674;1267;22548;-82
2023/01/14 23:29:51;;;;;;;11.40;4.70;;;;;;;4.68;100.00;98745.92;266344;1273;22562;-80
2023/01/14 23:35:57;;;;;;;9.50;4.80;;;;;;;4.46;100.00;98725.82;266537;1273;23366;-80
2023/01/14 23:42:00;;;;;;;9.70;4.90;;;;;;;4.71;100.00;98710.05;266484;1273;22622;-80
2023/01/14 23:48:23;;;;;;;11.10;4.90;;;;;;;4.75;100.00;98697.48;266566;1274;25410;-79
2023/01/14 23:54:26;;;;;;;10.50;4.90;;;;;;;4.94;100.00;98692.71;266277;1273;22578;-80
